LZZI METAR and TAF | Updated Today

LZZI METAR

Žilina Airport

Observation time: 19 min. ago

LZZI 080700Z 13001KT CAVOK M06/M08 Q1010

Need help? Read our tutorial on how to read METARs or read the parsed version below.

Žilina Airport (LZZI) METAR

  • Weather conditions on Wed, 08 Dec 2021 07:00:00 +0000 (19 min. ago):
  • Present conditions: Dry
  • Clouds: Clear skies
  • Visibility: Greater than 10 km
  • Wind: 130 degrees at 1 knots
  • Temperature: -6 celsius
  • Dew point: -8 celsius
  • Pressure: 1010 millibars
  • Remarks: None


Useful to know...

LZZI TAF

Žilina Airport

TAF LZZI 080500Z 0806/0815 VRB02KT CAVOK TEMPO 0806/0808 4000 BR SCT007 BECMG 0808/0810 07004KT
Observation time: 2:19 hr. ago
Need help? Read our tutorial on how to read TAFs or read the parsed version below.

Parsed version of TAF for Žilina Airport (LZZI)

  • From 08 December at 06:00 UTC, to day 08 of the month at 15:00 UTC
  • Visibility: Greater than 10 km
  • Wind: Variable at 2
  • Expected to arise temporarily, from 08 December at 06:00 UTC, to day 08 of the month at 08:00 UTC
  • Clouds: Scattered at 213 meters
  • Visibility: 4000 meters
  • Other: Mist
  • Expected to arise soon, from 08 December at 08:00 UTC, to day 08 of the month at 10:00 UTC
  • Wind: 70 degrees at 4